This is the latest recevied weather packets stored in our database for station/object N8HKU-5. If no packets are shown the sender has not sent any weather packets the latest 1 day(s).
| Time | Temp. | Humidity | Pressure | Rain* | Wind** | Luminosity | Snow |
|---|---|---|---|---|---|---|---|
| 1836274553 | 17.78° C | 70% | 1018.8 hPa | 0 mm | 0 m/s | - | - |
| 1836274405 | 17.22° C | 70% | 1018.8 hPa | 0 mm | 0 m/s | - | - |
| 1836273954 | 17.78° C | 70% | 1018.8 hPa | 0 mm | 0 m/s | - | - |
| 1778034153 | 8.33° C | 75% | 1006.4 hPa | 0 mm | 0 m/s | - | - |
| 1778033553 | 8.33° C | 74% | 1006.4 hPa | 0 mm | 0 m/s | - | - |
| 1778032954 | 8.89° C | 71% | 1006.4 hPa | 0 mm | 0 m/s | - | - |
| 1778032354 | 8.89° C | 68% | 1006.3 hPa | 0 mm | 0 m/s | - | - |
| 1778031754 | 9.44° C | 72% | 1006.1 hPa | 0 mm | 0 m/s | - | - |
| 1778031154 | 9.44° C | 66% | 1006 hPa | 0 mm | 0 m/s | - | - |
| 1778030553 | 10° C | 60% | 1005.9 hPa | 0 mm | 0 m/s | - | - |
| 1778029954 | 10.56° C | 63% | 1005.8 hPa | 0 mm | 0 m/s | - | - |
| 1778029354 | 10.56° C | 60% | 1005.9 hPa | 0 mm | 0 m/s | - | - |
| 1778028754 | 10.56° C | 59% | 1005.9 hPa | 0 mm | 0 m/s | - | - |
| 1778028157 | 10.56° C | 60% | 1005.9 hPa | 0 mm | 0 m/s | - | - |
| 1778027554 | 11.11° C | 60% | 1006 hPa | 0 mm | 0 m/s | - | - |
| 1778026954 | 11.11° C | 57% | 1005.9 hPa | 0 mm | 0 m/s | - | - |
| 1778026355 | 11.11° C | 54% | 1005.9 hPa | 0 mm | 0 m/s | - | - |
| 1778025753 | 11.11° C | 54% | 1005.8 hPa | 0 mm | 0 m/s | - | - |
| 1778025153 | 11.11° C | 52% | 1005.8 hPa | 0 mm | 0 m/s | - | - |
| 1778024553 | 11.67° C | 56% | 1005.4 hPa | 0 mm | 0 m/s | - | - |
| 1778023954 | 11.67° C | 54% | 1005.2 hPa | 0 mm | 0 m/s | - | - |
| 1778023355 | 11.67° C | 55% | 1005.1 hPa | 0 mm | 0 m/s | - | - |
| 1778022753 | 11.67° C | 58% | 1005.2 hPa | 0 mm | 0 m/s | - | - |
| 1778022153 | 12.22° C | 58% | 1005.2 hPa | 0 mm | 0 m/s | - | - |
| 1778021554 | 12.22° C | 60% | 1005.2 hPa | 0 mm | 0 m/s | - | - |
* Rain latest hour (hover to see other rain measurements)
** Current wind speed in m/s (hover to see current wind gust speed)